createdAt,value
2018-12-07T00:00:26.383Z,99506.96
2018-12-07T00:02:56.453Z,99509.05
2018-12-07T00:05:26.373Z,99503.45
2018-12-07T00:07:57.103Z,99504.33
2018-12-07T00:10:27.141Z,99494.50
2018-12-07T00:12:57.107Z,99490.39
2018-12-07T00:15:27.199Z,99480.95
2018-12-07T00:17:57.169Z,99482.60
2018-12-07T00:20:27.330Z,99477.13
2018-12-07T00:22:57.345Z,99476.64
2018-12-07T00:25:27.369Z,99468.58
2018-12-07T00:27:57.349Z,99461.29
2018-12-07T00:30:27.422Z,99459.76
2018-12-07T00:32:57.388Z,99463.47
2018-12-07T00:35:27.429Z,99455.69
2018-12-07T00:37:57.322Z,99459.77
2018-12-07T00:40:27.298Z,99457.22
2018-12-07T00:42:57.368Z,99444.43
2018-12-07T00:45:27.253Z,99442.00
2018-12-07T00:47:57.608Z,99446.98
2018-12-07T00:50:27.519Z,99444.44
2018-12-07T00:52:57.529Z,99432.67
2018-12-07T00:55:37.379Z,99428.84
2018-12-07T00:58:07.398Z,99418.98
2018-12-07T01:00:37.627Z,99416.66
2018-12-07T01:03:07.527Z,99419.09
2018-12-07T01:05:37.567Z,99430.86
2018-12-07T01:08:07.461Z,99428.18
2018-12-07T01:10:37.522Z,99439.07
2018-12-07T01:13:07.467Z,99438.04
2018-12-07T01:15:37.433Z,99442.13
2018-12-07T01:18:07.618Z,99438.58
2018-12-07T01:20:37.652Z,99437.30
2018-12-07T01:23:07.657Z,99428.34
2018-12-07T01:25:37.659Z,99422.81
2018-12-07T01:28:07.711Z,99419.88
2018-12-07T01:30:37.581Z,99420.01
2018-12-07T01:33:07.579Z,99425.50
2018-12-07T01:35:37.522Z,99414.11
2018-12-07T01:38:07.538Z,99410.55
2018-12-07T01:40:37.461Z,99411.83
2018-12-07T01:43:07.401Z,99408.87
2018-12-07T01:45:37.366Z,99410.68
2018-12-07T01:48:07.407Z,99410.93
2018-12-07T01:50:37.298Z,99402.76
2018-12-07T01:53:07.321Z,99398.92
2018-12-07T01:55:37.341Z,99387.41
2018-12-07T01:58:07.333Z,99389.06
2018-12-07T02:00:37.468Z,99387.41
2018-12-07T02:03:07.468Z,99393.67
2018-12-07T02:05:37.392Z,99394.67
2018-12-07T02:08:07.347Z,99390.20
2018-12-07T02:10:37.215Z,99393.55
2018-12-07T02:13:07.097Z,99392.39
2018-12-07T02:15:37.047Z,99390.20
2018-12-07T02:18:06.993Z,99390.20
2018-12-07T02:20:36.978Z,99381.00
2018-12-07T02:23:07.141Z,99380.62
2018-12-07T02:25:37.181Z,99379.46
2018-12-07T02:28:07.216Z,99373.31
2018-12-07T02:30:37.146Z,99366.14
2018-12-07T02:33:07.202Z,99359.25
2018-12-07T02:35:37.270Z,99358.34
2018-12-07T02:38:07.289Z,99350.92
2018-12-07T02:40:37.192Z,99335.31
2018-12-07T02:43:07.463Z,99330.09
2018-12-07T02:45:37.532Z,99325.59
2018-12-07T02:48:07.507Z,99324.07
2018-12-07T02:50:37.452Z,99327.41
2018-12-07T02:53:07.368Z,99324.20
2018-12-07T02:55:37.486Z,99328.41
2018-12-07T02:58:08.418Z,99325.47
2018-12-07T03:00:38.666Z,99323.58
2018-12-07T03:03:09.281Z,99325.98
2018-12-07T03:05:39.467Z,99327.28
2018-12-07T03:08:09.611Z,99312.80
2018-12-07T03:10:39.744Z,99300.14
2018-12-07T03:13:09.751Z,99293.73
2018-12-07T03:15:40.040Z,99291.94
2018-12-07T03:21:03.141Z,99297.55
2018-12-07T03:23:33.113Z,99295.47
2018-12-07T03:26:03.082Z,99290.61
2018-12-07T03:28:33.185Z,99278.95
2018-12-07T03:31:03.083Z,99269.69
2018-12-07T03:33:33.088Z,99266.46
2018-12-07T03:36:03.022Z,99261.61
2018-12-07T03:38:32.993Z,99272.97
2018-12-07T03:41:02.911Z,99263.86
2018-12-07T03:43:32.823Z,99257.58
2018-12-07T03:46:02.731Z,99259.41
2018-12-07T03:48:32.807Z,99256.59
2018-12-07T03:51:02.795Z,99256.59
2018-12-07T03:53:32.726Z,99255.24
2018-12-07T03:56:02.791Z,99260.36
2018-12-07T03:58:32.753Z,99259.08
2018-12-07T04:01:02.831Z,99258.52
2018-12-07T04:03:33.031Z,99271.48
2018-12-07T04:06:03.121Z,99263.39
2018-12-07T04:08:33.042Z,99249.55
2018-12-07T04:11:03.211Z,99245.67
2018-12-07T04:13:33.269Z,99245.03
2018-12-07T04:16:03.370Z,99231.84
2018-12-07T04:18:33.391Z,99232.48
2018-12-07T04:21:03.481Z,99226.34
2018-12-07T04:23:33.381Z,99223.63
2018-12-07T04:26:03.273Z,99226.48
2018-12-07T04:28:33.245Z,99231.46
2018-12-07T04:31:03.260Z,99226.45
2018-12-07T04:33:33.218Z,99219.78
2018-12-07T04:36:07.374Z,99212.69
2018-12-07T04:38:35.059Z,99209.17
2018-12-07T04:41:04.961Z,99203.30
2018-12-07T04:43:34.988Z,99197.11
2018-12-07T04:46:05.097Z,99191.49
2018-12-07T04:48:35.118Z,99190.20
2018-12-07T04:51:05.114Z,99192.46
2018-12-07T04:53:35.241Z,99195.41
2018-12-07T04:56:05.354Z,99192.15
2018-12-07T04:58:35.312Z,99197.77
2018-12-07T05:01:05.298Z,99196.22
2018-12-07T05:03:35.312Z,99187.83
2018-12-07T05:06:05.331Z,99198.47
2018-12-07T05:08:41.873Z,99195.36
2018-12-07T05:11:11.809Z,99186.66
2018-12-07T05:13:41.795Z,99189.59
2018-12-07T05:16:11.797Z,99178.96
2018-12-07T05:18:41.898Z,99184.47
2018-12-07T05:21:11.883Z,99177.25
2018-12-07T05:23:41.833Z,99186.38
2018-12-07T05:26:11.791Z,99175.33
2018-12-07T05:28:41.882Z,99172.39
2018-12-07T05:31:11.933Z,99176.14
2018-12-07T05:33:42.183Z,99171.80
2018-12-07T05:36:12.165Z,99161.27
2018-12-07T05:38:42.181Z,99169.73
2018-12-07T05:41:12.214Z,99160.21
2018-12-07T05:46:35.934Z,99153.58
2018-12-07T05:49:05.993Z,99157.81
2018-12-07T05:51:36.019Z,99157.92
2018-12-07T05:54:12.562Z,99151.12
2018-12-07T05:56:42.483Z,99156.89
2018-12-07T05:59:12.488Z,99147.01
2018-12-07T06:01:42.712Z,99140.33
2018-12-07T06:04:12.748Z,99143.76
2018-12-07T06:06:42.717Z,99140.16
2018-12-07T06:09:12.762Z,99138.30
2018-12-07T06:11:42.852Z,99141.23
2018-12-07T06:14:12.803Z,99143.68
2018-12-07T06:16:43.122Z,99136.09
2018-12-07T06:19:13.137Z,99135.41
2018-12-07T06:21:43.072Z,99143.19
2018-12-07T06:24:13.123Z,99132.77
2018-12-07T06:26:43.090Z,99140.56
2018-12-07T06:29:13.718Z,99131.80
2018-12-07T06:31:44.041Z,99123.93
2018-12-07T06:34:14.228Z,99121.85
2018-12-07T06:36:44.272Z,99119.70
2018-12-07T06:39:14.691Z,99118.00
2018-12-07T06:41:44.718Z,99116.97
2018-12-07T06:44:14.691Z,99121.78
2018-12-07T06:46:44.739Z,99127.44
2018-12-07T06:49:15.273Z,99125.09
2018-12-07T06:51:45.486Z,99118.22
2018-12-07T06:54:15.584Z,99121.80
2018-12-07T06:56:45.620Z,99117.56
2018-12-07T06:59:15.649Z,99113.92
2018-12-07T07:01:46.598Z,99108.27
2018-12-07T07:04:16.693Z,99107.41
2018-12-07T07:06:46.660Z,99111.73
2018-12-07T07:09:16.623Z,99110.35
2018-12-07T07:11:46.600Z,99107.89
2018-12-07T07:14:16.529Z,99110.18
2018-12-07T07:16:46.570Z,99108.86
2018-12-07T07:19:16.508Z,99106.67
2018-12-07T07:21:46.707Z,99103.63
2018-12-07T07:24:16.611Z,99102.44
2018-12-07T07:26:46.617Z,99107.78
2018-12-07T07:29:16.691Z,99098.24
2018-12-07T07:31:46.767Z,99107.23
2018-12-07T07:34:16.631Z,99102.72
2018-12-07T07:36:46.595Z,99099.17
2018-12-07T07:39:16.785Z,99098.80
2018-12-07T07:41:46.912Z,99099.48
2018-12-07T07:44:16.798Z,99091.12
2018-12-07T07:46:47.022Z,99096.84
2018-12-07T07:49:17.081Z,99092.79
2018-12-07T07:51:47.595Z,99092.23
2018-12-07T07:54:24.166Z,99096.56
2018-12-07T07:56:54.385Z,99091.95
2018-12-07T07:59:24.783Z,99086.55
2018-12-07T08:01:54.896Z,99081.80
2018-12-07T08:04:25.381Z,99080.23
2018-12-07T08:06:55.375Z,99073.33
2018-12-07T08:09:25.688Z,99075.66
2018-12-07T08:11:55.528Z,99073.81
2018-12-07T08:14:25.589Z,99072.64
2018-12-07T08:16:55.649Z,99078.70
2018-12-07T08:19:25.868Z,99073.80
2018-12-07T08:21:56.116Z,99069.15
2018-12-07T08:24:26.144Z,99066.69
2018-12-07T08:26:56.000Z,99065.64
2018-12-07T08:29:26.275Z,99072.35
2018-12-07T08:31:56.240Z,99064.13
2018-12-07T08:34:26.251Z,99060.89
2018-12-07T08:36:56.374Z,99069.86
2018-12-07T08:39:26.421Z,99060.41
2018-12-07T08:41:56.499Z,99060.17
2018-12-07T08:44:26.600Z,99053.09
2018-12-07T08:46:56.599Z,99053.80
2018-12-07T08:49:30.519Z,99049.95
2018-12-07T08:52:00.559Z,99051.34
2018-12-07T08:54:30.485Z,99050.48
2018-12-07T08:57:00.446Z,99046.63
2018-12-07T08:59:30.385Z,99044.11
2018-12-07T09:02:00.292Z,99044.02
2018-12-07T09:04:30.095Z,99039.38
2018-12-07T09:07:00.040Z,99033.44
2018-12-07T09:09:29.869Z,99034.86
2018-12-07T09:11:59.796Z,99035.63
2018-12-07T09:14:29.683Z,99027.92
2018-12-07T09:16:59.493Z,99030.53
2018-12-07T09:19:29.507Z,99027.34
2018-12-07T09:21:59.337Z,99029.14
2018-12-07T09:24:30.160Z,99024.99
2018-12-07T09:26:59.960Z,99020.14
2018-12-07T09:29:29.873Z,99018.55
2018-12-07T09:31:59.729Z,99016.59
2018-12-07T09:34:29.693Z,99018.55
2018-12-07T09:36:59.560Z,99004.79
2018-12-07T09:39:29.449Z,99009.75
2018-12-07T09:41:59.340Z,99006.88
2018-12-07T09:44:29.184Z,99003.53
2018-12-07T09:46:59.155Z,99001.63
2018-12-07T09:49:29.072Z,98993.63
2018-12-07T09:51:59.096Z,98986.99
2018-12-07T09:54:29.286Z,98978.36
2018-12-07T09:56:59.420Z,98977.66
2018-12-07T09:59:29.298Z,98969.53
2018-12-07T10:01:59.141Z,98969.64
2018-12-07T10:04:29.165Z,98966.26
2018-12-07T10:06:59.010Z,98962.30
2018-12-07T10:09:28.993Z,98958.05
2018-12-07T10:11:59.006Z,98956.13
2018-12-07T10:14:29.020Z,98952.23
2018-12-07T10:16:58.854Z,98944.69
2018-12-07T10:19:28.744Z,98946.42
2018-12-07T10:21:58.626Z,98936.03
2018-12-07T10:24:28.670Z,98934.73
2018-12-07T10:27:06.880Z,98927.19
2018-12-07T10:29:36.895Z,98922.81
2018-12-07T10:32:06.810Z,98917.48
2018-12-07T10:34:36.723Z,98917.17
2018-12-07T10:37:06.569Z,98907.61
2018-12-07T10:39:36.472Z,98902.66
2018-12-07T10:42:06.456Z,98897.98
2018-12-07T10:44:36.476Z,98893.81
2018-12-07T10:47:06.313Z,98890.26
2018-12-07T10:49:36.257Z,98886.90
2018-12-07T10:52:06.101Z,98886.56
2018-12-07T10:54:36.130Z,98880.50
2018-12-07T10:57:05.974Z,98873.62
2018-12-07T10:59:35.821Z,98872.77
2018-12-07T11:02:09.647Z,98878.09
2018-12-07T11:04:43.469Z,98872.79
2018-12-07T11:07:17.256Z,98870.58
2018-12-07T11:09:51.092Z,98869.38
2018-12-07T11:12:24.863Z,98861.44
2018-12-07T11:14:58.729Z,98859.81
2018-12-07T11:17:32.531Z,98855.38
2018-12-07T11:20:06.589Z,98847.87
2018-12-07T11:22:40.346Z,98853.02
2018-12-07T11:25:14.209Z,98852.02
2018-12-07T11:27:48.159Z,98847.25
2018-12-07T11:30:21.990Z,98846.62
2018-12-07T11:32:55.798Z,98839.82
2018-12-07T11:35:29.880Z,98832.23
2018-12-07T11:37:59.781Z,98833.30
2018-12-07T11:40:29.858Z,98829.93
2018-12-07T11:42:59.977Z,98831.76
2018-12-07T11:45:29.872Z,98824.66
2018-12-07T11:47:59.719Z,98826.44
2018-12-07T11:50:29.619Z,98819.92
2018-12-07T11:53:00.252Z,98813.25
2018-12-07T11:55:30.103Z,98811.52
2018-12-07T11:58:00.067Z,98815.75
2018-12-07T12:00:29.987Z,98808.78
2018-12-07T12:02:59.898Z,98803.03
2018-12-07T12:05:29.906Z,98804.30
2018-12-07T12:07:59.754Z,98799.25
2018-12-07T12:10:29.666Z,98792.41
2018-12-07T12:12:59.646Z,98788.77
2018-12-07T12:15:29.665Z,98784.66
2018-12-07T12:17:59.678Z,98784.08
2018-12-07T12:20:29.591Z,98782.87
2018-12-07T12:22:59.417Z,98772.75
2018-12-07T12:25:29.316Z,98765.09
2018-12-07T12:27:59.222Z,98760.17
2018-12-07T12:30:29.247Z,98760.41
2018-12-07T12:32:59.083Z,98749.55
2018-12-07T12:35:29.313Z,98741.74
2018-12-07T12:37:59.050Z,98741.66
2018-12-07T12:40:29.000Z,98739.02
2018-12-07T12:42:58.913Z,98736.20
2018-12-07T12:45:28.803Z,98737.84
2018-12-07T12:47:58.649Z,98735.41
2018-12-07T12:50:32.527Z,98726.31
2018-12-07T12:53:02.458Z,98725.56
2018-12-07T12:55:32.533Z,98713.06
2018-12-07T12:58:02.363Z,98720.33
2018-12-07T13:00:32.211Z,98714.86
2018-12-07T13:03:02.065Z,98714.47
2018-12-07T13:05:32.021Z,98711.77
2018-12-07T13:08:01.932Z,98710.48
2018-12-07T13:10:31.882Z,98708.80
2018-12-07T13:13:01.848Z,98702.20
2018-12-07T13:15:31.690Z,98698.02
2018-12-07T13:18:01.602Z,98700.17
2018-12-07T13:20:31.411Z,98702.75
2018-12-07T13:23:01.248Z,98708.33
2018-12-07T13:25:31.235Z,98705.44
2018-12-07T13:28:01.191Z,98698.99
2018-12-07T13:30:31.163Z,98696.30
2018-12-07T13:33:00.946Z,98690.44
2018-12-07T13:35:31.298Z,98690.20
2018-12-07T13:38:01.507Z,98683.83
2018-12-07T13:40:31.703Z,98681.25
2018-12-07T13:43:02.074Z,98679.72
2018-12-07T13:45:31.993Z,98676.66
2018-12-07T13:48:02.127Z,98675.14
2018-12-07T13:50:36.219Z,98663.34
2018-12-07T13:53:06.191Z,98661.73
2018-12-07T13:55:36.068Z,98662.55
2018-12-07T13:58:06.307Z,98659.30
2018-12-07T14:00:36.475Z,98647.08
2018-12-07T14:03:06.362Z,98646.11
2018-12-07T14:05:36.437Z,98646.58
2018-12-07T14:08:06.427Z,98654.00
2018-12-07T14:10:37.005Z,98650.13
2018-12-07T14:13:07.102Z,98649.48
2018-12-07T14:15:36.918Z,98648.35
2018-12-07T14:18:07.207Z,98641.59
2018-12-07T14:20:37.362Z,98636.76
2018-12-07T14:23:07.433Z,98634.97
2018-12-07T14:25:37.722Z,98629.02
2018-12-07T14:28:07.713Z,98631.09
2018-12-07T14:30:37.624Z,98624.10
2018-12-07T14:33:07.605Z,98623.06
2018-12-07T14:35:38.013Z,98620.55
2018-12-07T14:38:08.172Z,98615.47
2018-12-07T14:40:38.015Z,98609.02
2018-12-07T14:43:07.960Z,98610.81
2018-12-07T14:45:38.322Z,98609.17
2018-12-07T14:48:08.397Z,98606.34
2018-12-07T14:50:38.587Z,98597.25
2018-12-07T14:53:08.609Z,98604.59
2018-12-07T14:55:38.824Z,98599.67
2018-12-07T14:58:08.884Z,98589.13
2018-12-07T15:00:38.884Z,98595.88
2018-12-07T15:03:09.018Z,98590.50
2018-12-07T15:05:39.048Z,98592.25
2018-12-07T15:08:09.165Z,98588.39
2018-12-07T15:10:39.044Z,98584.34
2018-12-07T15:13:08.950Z,98575.56
2018-12-07T15:15:39.134Z,98569.94
2018-12-07T15:18:09.182Z,98571.08
2018-12-07T15:20:39.106Z,98568.39
2018-12-07T15:23:09.097Z,98563.09
2018-12-07T15:25:39.124Z,98565.73
2018-12-07T15:28:09.354Z,98568.64
2018-12-07T15:30:39.775Z,98557.39
2018-12-07T15:33:10.237Z,98558.09
2018-12-07T15:35:40.794Z,98559.97
2018-12-07T15:38:10.880Z,98557.21
2018-12-07T15:40:41.233Z,98557.03
2018-12-07T15:43:11.324Z,98551.48
2018-12-07T15:45:41.416Z,98541.80
2018-12-07T15:48:11.639Z,98539.97
2018-12-07T15:50:41.807Z,98534.89
2018-12-07T15:53:12.030Z,98537.37
2018-12-07T15:55:41.913Z,98529.63
2018-12-07T15:58:11.906Z,98528.17
2018-12-07T16:00:42.101Z,98527.27
2018-12-07T16:03:12.780Z,98518.71
2018-12-07T16:05:43.238Z,98515.67
2018-12-07T16:08:13.797Z,98514.23
2018-12-07T16:10:49.064Z,98509.32
2018-12-07T16:13:15.817Z,98498.50
2018-12-07T16:15:45.824Z,98493.78
2018-12-07T16:18:16.301Z,98482.85
2018-12-07T16:20:49.621Z,98472.31
2018-12-07T16:23:20.090Z,98466.63
2018-12-07T16:25:50.061Z,98472.96
2018-12-07T16:28:21.022Z,98464.19
2018-12-07T16:30:51.108Z,98458.56
2018-12-07T16:33:21.170Z,98454.13
2018-12-07T16:35:51.347Z,98448.82
2018-12-07T16:38:21.544Z,98441.23
2018-12-07T16:40:51.688Z,98434.78
2018-12-07T16:43:21.825Z,98432.13
2018-12-07T16:45:52.093Z,98427.80
2018-12-07T16:48:22.321Z,98423.14
2018-12-07T16:50:53.556Z,98420.42
2018-12-07T16:53:23.677Z,98423.25
2018-12-07T16:55:53.906Z,98422.93
2018-12-07T16:58:24.438Z,98421.28
2018-12-07T17:00:54.597Z,98416.37
2018-12-07T17:03:24.435Z,98410.82
2018-12-07T17:05:54.768Z,98401.76
2018-12-07T17:08:24.705Z,98401.54
2018-12-07T17:10:54.626Z,98392.45
2018-12-07T17:13:24.789Z,98384.15
2018-12-07T17:15:54.852Z,98386.58
2018-12-07T17:18:24.806Z,98380.53
2018-12-07T17:20:54.763Z,98369.01
2018-12-07T17:23:24.812Z,98370.47
2018-12-07T17:25:55.057Z,98372.41
2018-12-07T17:28:25.327Z,98364.83
2018-12-07T17:30:55.565Z,98356.45
2018-12-07T17:33:25.825Z,98356.84
2018-12-07T17:35:55.672Z,98352.12
2018-12-07T17:38:26.102Z,98347.58
2018-12-07T17:40:56.091Z,98342.03
2018-12-07T17:43:26.165Z,98340.42
2018-12-07T17:45:56.095Z,98337.30
2018-12-07T17:48:26.336Z,98330.04
2018-12-07T17:50:57.564Z,98321.92
2018-12-07T17:53:28.471Z,98324.56
2018-12-07T17:55:58.561Z,98315.80
2018-12-07T17:58:28.583Z,98319.95
2018-12-07T18:00:58.560Z,98307.21
2018-12-07T18:03:28.601Z,98296.02
2018-12-07T18:05:58.429Z,98294.66
2018-12-07T18:08:28.485Z,98292.29
2018-12-07T18:10:58.433Z,98292.14
2018-12-07T18:13:28.590Z,98286.81
2018-12-07T18:15:58.662Z,98284.98
2018-12-07T18:18:28.694Z,98277.12
2018-12-07T18:20:59.009Z,98266.53
2018-12-07T18:23:29.245Z,98260.27
2018-12-07T18:25:59.513Z,98252.05
2018-12-07T18:28:31.135Z,98247.87
2018-12-07T18:31:01.315Z,98233.77
2018-12-07T18:33:31.422Z,98228.25
2018-12-07T18:36:01.569Z,98225.89
2018-12-07T18:38:31.803Z,98220.59
2018-12-07T18:41:04.781Z,98217.84
2018-12-07T18:43:37.261Z,98216.03
2018-12-07T18:46:07.609Z,98214.88
2018-12-07T18:48:44.365Z,98207.72
2018-12-07T18:51:15.045Z,98204.64
2018-12-07T18:53:45.255Z,98194.44
2018-12-07T18:56:18.808Z,98200.40
2018-12-07T18:58:52.128Z,98194.98
2018-12-07T19:01:25.517Z,98190.16
2018-12-07T19:03:58.689Z,98181.20
2018-12-07T19:06:28.642Z,98181.53
2018-12-07T19:09:00.141Z,98184.05
2018-12-07T19:11:30.195Z,98188.42
2018-12-07T19:14:05.683Z,98185.34
2018-12-07T19:16:36.386Z,98180.81
2018-12-07T19:19:06.482Z,98174.84
2018-12-07T19:21:36.609Z,98174.77
2018-12-07T19:24:09.586Z,98164.89
2018-12-07T19:26:40.376Z,98161.42
2018-12-07T19:29:10.363Z,98157.63
2018-12-07T19:31:40.576Z,98164.53
2018-12-07T19:34:11.256Z,98154.58
2018-12-07T19:36:42.383Z,98152.00
2018-12-07T19:39:20.132Z,98152.13
2018-12-07T19:41:50.110Z,98150.78
2018-12-07T19:44:20.163Z,98150.78
2018-12-07T19:46:57.545Z,98144.41
2018-12-07T19:49:29.214Z,98144.86
2018-12-07T19:51:59.883Z,98141.83
2018-12-07T19:54:30.062Z,98141.63
2018-12-07T19:57:03.520Z,98142.91
2018-12-07T19:59:39.627Z,98142.28
2018-12-07T20:02:11.051Z,98139.38
2018-12-07T20:04:42.469Z,98136.17
2018-12-07T20:07:12.488Z,98140.73
2018-12-07T20:09:42.478Z,98138.89
2018-12-07T20:12:15.742Z,98136.01
2018-12-07T20:14:45.732Z,98138.22
2018-12-07T20:17:19.092Z,98134.19
2018-12-07T20:19:49.407Z,98128.59
2018-12-07T20:22:21.557Z,98120.80
2018-12-07T20:24:52.560Z,98115.97
2018-12-07T20:27:23.961Z,98121.62
2018-12-07T20:29:58.150Z,98115.52
2018-12-07T20:32:28.916Z,98117.01
2018-12-07T20:35:00.178Z,98105.34
2018-12-07T20:40:09.413Z,98096.09
2018-12-07T20:42:39.378Z,98089.19
2018-12-07T20:45:10.935Z,98082.25
2018-12-07T20:47:44.391Z,98074.39
2018-12-07T20:50:18.182Z,98073.23
2018-12-07T20:52:49.935Z,98084.57
2018-12-07T20:55:22.999Z,98081.37
2018-12-07T20:57:54.138Z,98078.23
2018-12-07T21:00:24.113Z,98082.49
2018-12-07T21:02:59.200Z,98090.78
2018-12-07T21:08:56.992Z,98096.66
2018-12-07T21:11:39.842Z,98104.39
2018-12-07T21:14:23.015Z,98112.52
2018-12-07T21:20:04.836Z,98106.14
2018-12-07T21:22:38.029Z,98106.61
2018-12-07T21:25:08.302Z,98102.87
2018-12-07T21:27:41.691Z,98100.72
2018-12-07T21:33:09.064Z,98102.67
2018-12-07T21:35:54.753Z,98088.32
2018-12-07T21:38:25.256Z,98079.97
2018-12-07T21:40:56.422Z,98080.76
2018-12-07T21:43:26.683Z,98074.94
2018-12-07T21:45:56.842Z,98076.64
2018-12-07T21:48:30.430Z,98081.59
2018-12-07T21:51:13.960Z,98069.98
2018-12-07T21:53:44.221Z,98060.34
2018-12-07T21:56:15.851Z,98060.22
2018-12-07T21:58:49.369Z,98061.17
2018-12-07T22:01:19.818Z,98061.23
2018-12-07T22:03:49.991Z,98065.87
2018-12-07T22:06:20.095Z,98067.02
2018-12-07T22:08:50.612Z,98067.48
2018-12-07T22:11:21.081Z,98069.03
2018-12-07T22:13:51.010Z,98065.16
2018-12-07T22:16:21.302Z,98071.02
2018-12-07T22:18:51.544Z,98058.72
2018-12-07T22:21:21.953Z,98054.11
2018-12-07T22:23:52.064Z,98048.37
2018-12-07T22:26:22.079Z,98052.23
2018-12-07T22:28:52.407Z,98048.00
2018-12-07T22:31:22.545Z,98044.41
2018-12-07T22:33:52.808Z,98041.42
2018-12-07T22:36:23.029Z,98041.16
2018-12-07T22:38:53.222Z,98041.28
2018-12-07T22:41:23.209Z,98041.78
2018-12-07T22:44:00.141Z,98033.55
2018-12-07T22:46:30.121Z,98032.61
2018-12-07T22:49:00.232Z,98047.13
2018-12-07T22:51:30.841Z,98030.93
2018-12-07T22:54:00.848Z,98027.00
2018-12-07T22:56:30.858Z,98036.36
2018-12-07T22:59:00.882Z,98023.34
2018-12-07T23:01:31.008Z,98030.31
2018-12-07T23:04:00.925Z,98021.23
2018-12-07T23:06:30.893Z,98023.87
2018-12-07T23:09:00.857Z,98018.72
2018-12-07T23:11:30.872Z,98012.67
2018-12-07T23:14:00.901Z,98009.63
2018-12-07T23:16:31.061Z,97991.31
2018-12-07T23:19:07.667Z,97991.72
2018-12-07T23:21:37.779Z,97985.33
2018-12-07T23:24:07.831Z,97988.80
2018-12-07T23:26:37.918Z,97991.66
2018-12-07T23:31:59.869Z,97987.91
2018-12-07T23:34:29.875Z,97988.68
2018-12-07T23:36:59.887Z,97973.89
2018-12-07T23:39:29.838Z,97971.93
2018-12-07T23:41:59.918Z,97974.92
2018-12-07T23:44:29.931Z,97970.17
2018-12-07T23:47:00.317Z,97957.03
2018-12-07T23:49:30.378Z,97957.81
2018-12-07T23:52:00.355Z,97953.02
2018-12-07T23:54:30.420Z,97956.46
2018-12-07T23:57:00.528Z,97955.91
2018-12-07T23:59:30.457Z,97955.11
